Hurley, Mississippi
Current Conditions -  °F | °C
As of 11:53 AM on Sunday 21 Dec 2014 (Local Time) from KPQL Reporting Station
Overcast Overcast  
Wind Chill: 56°   Ceiling: 900
Heat Index: 56°   Visibility: 9mi
Dew Point: 52°   Wind: 3mph
Humidity: 87%   Direction: 100°E
Pressure: 30.08"   Gusts: NA
Location:  30.66°N, 88.49°W
Report Text: KPQL 211753Z 10003KT 9SM OVC009 13/11 A3008 RMK AO2 SLP187 T01330111 10133 20094 56015
Loading
Personal Weather Stations






























Interactive Weather Map New forecast layout! Learn more

10-Day Weather Forecast

Advertisements
Track Severe Weather on mobile